Time;durP1;ratioP1;P1;durP2;ratioP2;P2;SDS_P1;SDS_P2;PMS_P1;PMS_P2;Temp;Humidity;BMP_temperature;BMP_pressure;BME280_temperature;BME280_humidity;BME280_pressure;Samples;Min_cycle;Max_cycle;Signal;HPM_P1;HPM_P2
2023/10/13 03:41:08;;;;;;;4.57;1.73;;;;;;;;;;20635286;23;20291;-88
2023/10/13 03:51:15;;;;;;;3.77;1.60;;;;;;;;;;20534157;28;20231;-88
2023/10/13 04:01:17;;;;;;;4.37;1.30;;;;;;;;;;20527911;28;20232;-87
2023/10/13 04:12:17;;;;;;;3.20;1.23;;;;;;;;;;20532154;28;20637;-87
2023/10/13 04:21:42;;;;;;;4.30;1.40;;;;;;;;;;20570572;28;20233;-87
2023/10/13 04:31:55;;;;;;;2.37;1.43;;;;;;;;;;20545956;28;20220;-87
2023/10/13 04:41:57;;;;;;;6.70;1.50;;;;;;;;;;20542996;28;20228;-87
2023/10/13 06:35:23;;;;;;;3.40;1.60;;;;;;;;;;20551414;28;20213;-68
2023/10/13 06:45:28;;;;;;;3.37;1.37;;;;;;;;;;20581449;28;20291;-68
2023/10/13 06:55:35;;;;;;;2.50;1.20;;;;;;;;;;20548335;28;20288;-68
2023/10/13 07:05:43;;;;;;;4.10;1.40;;;17.40;99.90;;;;;;20534243;28;20225;-68
2023/10/13 07:15:45;;;;;;;3.00;1.23;;;;;;;;;;20551648;28;20362;-68
2023/10/13 07:26:03;;;;;;;4.27;1.40;;;;;;;;;;20540641;28;20236;-67
2023/10/13 07:36:16;;;;;;;3.17;1.57;;;;;;;;;;20563982;28;20212;-67
2023/10/13 07:46:24;;;;;;;2.23;1.23;;;;;;;;;;20560705;28;20216;-67
2023/10/13 07:56:30;;;;;;;1.93;1.30;;;;;;;;;;20543816;28;20272;-68
2023/10/13 08:06:34;;;;;;;3.10;1.60;;;;;;;;;;20543156;28;20225;-67
2023/10/13 08:16:54;;;;;;;2.57;1.50;;;;;;;;;;20544877;28;20279;-67
2023/10/13 08:37:28;;;;;;;2.50;1.17;;;;;;;;;;20557483;28;20211;-67
2023/10/13 08:47:36;;;;;;;2.47;1.20;;;;;;;;;;20527247;28;20548;-67
2023/10/13 08:57:38;;;;;;;4.00;1.50;;;;;;;;;;20570561;28;20651;-67
2023/10/13 09:07:47;;;;;;;2.63;1.40;;;;;;;;;;20560588;28;20239;-66
2023/10/13 09:18:12;;;;;;;3.17;1.40;;;20.80;99.90;;;;;;20549535;28;20216;-67
2023/10/13 09:28:17;;;;;;;2.57;1.30;;;;;;;;;;20555431;28;20285;-67
2023/10/13 09:38:20;;;;;;;1.50;0.97;;;;;;;;;;20572559;28;20285;-67
2023/10/13 09:48:26;;;;;;;4.70;1.30;;;21.40;99.90;;;;;;20558130;28;20644;-67
2023/10/13 09:58:36;;;;;;;4.37;1.47;;;;;;;;;;20634787;23;20222;-68
2023/10/13 10:08:48;;;;;;;3.67;1.40;;;;;;;;;;20675658;28;20233;-67
2023/10/13 10:19:00;;;;;;;3.50;1.27;;;22.40;99.90;;;;;;20635194;28;20304;-68
2023/10/13 10:29:14;;;;;;;2.30;1.23;;;;;;;;;;20686259;28;20310;-67
2023/10/13 10:39:17;;;;;;;2.38;1.50;;;;;;;;;;20689245;28;20222;-67
2023/10/13 10:49:27;;;;;;;1.95;1.10;;;23.00;99.90;;;;;;20655553;28;20297;-68
2023/10/13 10:59:37;;;;;;;2.75;0.90;;;;;;;;;;20649031;28;20644;-67
2023/10/13 11:19:42;;;;;;;2.40;1.25;;;23.10;99.90;;;;;;20683802;28;20224;-69
2023/10/13 11:29:52;;;;;;;3.40;1.13;;;;;;;;;;20660315;28;20219;-69
2023/10/13 11:39:54;;;;;;;3.65;1.65;;;;;;;;;;20666018;28;20226;-68
2023/10/13 11:49:58;;;;;;;3.75;1.95;;;;;;;;;;20651165;28;20221;-66
2023/10/13 12:00:25;;;;;;;3.45;1.40;;;;;;;;;;20664866;28;20777;-66
2023/10/13 12:10:38;;;;;;;2.95;1.38;;;;;;;;;;20687063;28;20265;-69
2023/10/13 12:20:45;;;;;;;3.35;1.30;;;;;;;;;;20658537;28;20215;-68
2023/10/13 12:30:53;;;;;;;3.17;1.20;;;25.00;99.90;;;;;;20685786;28;20716;-69
2023/10/13 13:01:34;;;;;;;10.63;2.17;;;;;;;;;;20625791;28;20290;-68
2023/10/13 13:11:39;;;;;;;4.05;1.75;;;;;;;;;;20650253;28;20211;-68
2023/10/13 13:21:42;;;;;;;3.45;1.17;;;;;;;;;;20659373;28;20682;-68
2023/10/13 13:31:44;;;;;;;3.42;1.45;;;;;;;;;;20675473;28;20265;-70
2023/10/13 13:41:50;;;;;;;1.67;1.10;;;;;;;;;;20715953;28;20238;-69
2023/10/13 13:51:52;;;;;;;2.53;1.20;;;;;;;;;;20659615;28;20221;-68
2023/10/13 14:01:59;;;;;;;3.95;1.20;;;;;;;;;;20686304;28;20234;-69
2023/10/13 14:22:24;;;;;;;3.30;1.30;;;;;;;;;;20707743;28;20605;-66
2023/10/13 14:32:27;;;;;;;3.05;1.20;;;;;;;;;;20679493;28;20692;-68
2023/10/13 14:42:35;;;;;;;2.67;1.38;;;;;;;;;;20677270;28;20225;-66
2023/10/13 14:52:37;;;;;;;3.42;1.15;;;;;;;;;;20636938;28;20216;-66
2023/10/13 15:02:38;;;;;;;6.50;1.30;;;;;;;;;;20601929;28;20248;-68
2023/10/13 15:12:41;;;;;;;5.53;1.15;;;;;;;;;;20612335;28;20226;-70
2023/10/13 15:22:44;;;;;;;2.72;1.02;;;24.80;99.90;;;;;;20610260;28;20238;-69
2023/10/13 15:32:48;;;;;;;2.08;1.02;;;;;;;;;;20642711;28;20231;-68
2023/10/13 15:42:50;;;;;;;2.28;1.10;;;;;;;;;;20630380;28;20227;-69
2023/10/13 15:52:52;;;;;;;3.50;1.48;;;;;;;;;;20632345;28;20222;-65
2023/10/13 16:02:55;;;;;;;3.13;1.15;;;;;;;;;;20658022;23;20644;-74
2023/10/13 16:12:57;;;;;;;4.85;1.23;;;;;;;;;;20628262;28;20210;-74
2023/10/13 16:22:59;;;;;;;4.45;1.00;;;;;;;;;;20600070;28;20234;-73
2023/10/13 16:33:01;;;;;;;2.80;1.00;;;;;;;;;;20660679;28;20222;-72
2023/10/13 16:43:03;;;;;;;4.20;1.15;;;;;;;;;;20649491;28;20284;-73
2023/10/13 16:53:06;;;;;;;2.55;1.17;;;;;;;;;;20616725;28;20250;-73
2023/10/13 17:03:08;;;;;;;4.13;1.05;;;;;;;;;;20654509;28;20823;-73
2023/10/13 17:13:09;;;;;;;2.15;0.88;;;;;;;;;;20649102;28;20305;-73
2023/10/13 17:23:11;;;;;;;2.60;0.88;;;23.50;99.90;;;;;;20639047;28;20220;-73
2023/10/13 17:33:15;;;;;;;2.50;1.00;;;;;;;;;;20633698;28;20233;-73
2023/10/13 17:43:16;;;;;;;4.45;1.05;;;;;;;;;;20624834;28;20298;-73
2023/10/13 17:53:18;;;;;;;3.05;0.90;;;;;;;;;;20626673;28;20268;-73
2023/10/13 18:03:20;;;;;;;1.98;0.90;;;;;;;;;;20613176;28;20226;-73
2023/10/13 18:13:22;;;;;;;1.48;0.75;;;;;;;;;;20620139;28;20222;-73
2023/10/13 18:23:24;;;;;;;4.18;1.05;;;;;;;;;;20648640;28;20246;-73
2023/10/13 18:33:26;;;;;;;1.92;0.77;;;;;;;;;;20646167;28;20226;-73
2023/10/13 18:43:28;;;;;;;0.68;0.57;;;;;;;;;;20636658;28;20331;-73
2023/10/13 18:53:30;;;;;;;1.58;0.70;;;;;;;;;;20631090;28;20235;-73
2023/10/13 19:03:31;;;;;;;0.63;0.55;;;;;;;;;;20635388;28;20225;-72
2023/10/13 19:13:33;;;;;;;1.30;0.73;;;;;;;;;;20634795;28;20258;-73
2023/10/13 19:23:36;;;;;;;1.42;0.68;;;;;;;;;;20655253;28;20554;-73
2023/10/13 19:33:39;;;;;;;1.92;0.75;;;;;;;;;;20654938;28;20238;-73
2023/10/13 19:43:44;;;;;;;1.60;0.85;;;;;;;;;;20657587;28;20215;-73
2023/10/13 19:53:47;;;;;;;1.70;0.85;;;;;;;;;;20639433;28;20236;-74
2023/10/13 20:03:56;;;;;;;2.70;0.80;;;;;;;;;;20639139;28;20225;-74
2023/10/13 20:14:01;;;;;;;1.52;0.77;;;;;;;;;;20629293;28;20289;-73
2023/10/13 20:24:04;;;;;;;1.77;0.73;;;22.70;98.70;;;;;;20625536;28;20283;-74
2023/10/13 20:34:12;;;;;;;4.32;1.08;;;;;;;;;;20631253;28;20216;-74
2023/10/13 20:44:14;;;;;;;3.70;0.90;;;;;;;;;;20633375;28;20231;-74
2023/10/13 20:54:16;;;;;;;3.10;0.70;;;;;;;;;;20622108;28;20233;-74
2023/10/13 21:04:18;;;;;;;2.10;0.77;;;;;;;;;;20631526;28;20249;-74
2023/10/13 21:14:20;;;;;;;2.05;0.82;;;;;;;;;;20621975;28;20212;-73
2023/10/13 21:24:21;;;;;;;2.50;1.10;;;;;;;;;;20639687;28;20417;-74
2023/10/13 21:34:23;;;;;;;4.43;1.30;;;22.10;99.90;;;;;;20639658;28;20255;-74
2023/10/13 21:44:25;;;;;;;2.40;0.70;;;;;;;;;;20631609;28;20229;-73
2023/10/13 21:54:26;;;;;;;2.28;1.30;;;;;;;;;;20647660;28;20817;-73
2023/10/13 22:04:31;;;;;;;2.00;0.82;;;;;;;;;;20671136;23;20232;-76
2023/10/13 22:14:33;;;;;;;1.52;1.02;;;;;;;;;;20653246;28;20237;-76
2023/10/13 22:24:34;;;;;;;3.72;1.38;;;;;;;;;;20657111;28;20221;-76
2023/10/13 22:34:36;;;;;;;1.90;1.15;;;;;;;;;;20645102;28;20261;-77
2023/10/13 22:44:38;;;;;;;2.80;1.25;;;;;;;;;;20648797;28;20222;-76
2023/10/13 22:54:41;;;;;;;2.38;1.30;;;;;;;;;;20660220;28;20239;-77
2023/10/13 23:04:50;;;;;;;2.80;1.20;;;;;;;;;;20658625;28;20270;-77
2023/10/13 23:14:52;;;;;;;2.10;1.10;;;;;;;;;;20655876;28;20300;-77
2023/10/13 23:24:54;;;;;;;2.50;1.83;;;;;;;;;;20627051;28;20218;-77
2023/10/13 23:34:58;;;;;;;2.30;1.27;;;;;;;;;;20647647;28;20292;-77
2023/10/13 23:45:18;;;;;;;1.77;1.10;;;;;;;;;;20625292;28;20658;-77
2023/10/13 23:55:19;;;;;;;6.18;1.30;;;;;;;;;;20647836;28;20657;-77
